createdAt,value
2018-07-06T00:01:24.295Z,21.37
2018-07-06T00:04:04.086Z,21.27
2018-07-06T00:06:43.744Z,21.16
2018-07-06T00:09:23.571Z,21.08
2018-07-06T00:12:03.320Z,21.05
2018-07-06T00:14:43.164Z,21.00
2018-07-06T00:17:22.831Z,20.89
2018-07-06T00:20:02.637Z,20.86
2018-07-06T00:22:42.299Z,20.90
2018-07-06T00:25:22.067Z,20.86
2018-07-06T00:28:01.774Z,20.79
2018-07-06T00:30:41.366Z,20.75
2018-07-06T00:33:21.051Z,20.70
2018-07-06T00:36:01.388Z,20.61
2018-07-06T00:38:41.085Z,20.63
2018-07-06T00:41:20.879Z,20.53
2018-07-06T00:44:00.659Z,20.53
2018-07-06T00:46:40.448Z,20.45
2018-07-06T00:49:20.327Z,20.43
2018-07-06T00:52:00.053Z,20.35
2018-07-06T00:54:39.896Z,20.18
2018-07-06T00:57:20.121Z,20.25
2018-07-06T00:59:59.994Z,20.27
2018-07-06T01:02:39.783Z,20.23
2018-07-06T01:05:19.532Z,20.20
2018-07-06T01:07:59.199Z,20.20
2018-07-06T01:10:38.872Z,20.12
2018-07-06T01:13:18.770Z,20.18
2018-07-06T01:15:58.363Z,20.09
2018-07-06T01:18:38.137Z,20.07
2018-07-06T01:21:17.839Z,20.04
2018-07-06T01:23:57.600Z,19.93
2018-07-06T01:26:37.427Z,19.93
2018-07-06T01:29:17.210Z,19.90
2018-07-06T01:31:57.044Z,19.89
2018-07-06T01:34:36.782Z,19.87
2018-07-06T01:37:16.571Z,19.83
2018-07-06T01:39:56.296Z,19.82
2018-07-06T01:42:36.131Z,19.83
2018-07-06T01:45:15.867Z,19.79
2018-07-06T01:47:55.643Z,19.75
2018-07-06T01:50:35.438Z,19.62
2018-07-06T01:53:15.391Z,19.61
2018-07-06T01:56:01.104Z,19.53
2018-07-06T01:58:40.988Z,19.52
2018-07-06T02:01:20.565Z,19.51
2018-07-06T02:04:00.311Z,19.42
2018-07-06T02:06:39.974Z,19.39
2018-07-06T02:09:19.812Z,19.36
2018-07-06T02:11:59.555Z,19.28
2018-07-06T02:14:39.324Z,19.27
2018-07-06T02:17:19.116Z,19.24
2018-07-06T02:19:58.827Z,19.14
2018-07-06T02:22:38.632Z,19.07
2018-07-06T02:25:18.316Z,19.09
2018-07-06T02:27:58.023Z,19.00
2018-07-06T02:30:37.826Z,18.97
2018-07-06T02:33:17.655Z,18.90
2018-07-06T02:35:57.361Z,18.94
2018-07-06T02:38:37.031Z,18.86
2018-07-06T02:41:16.771Z,18.76
2018-07-06T02:43:56.474Z,18.79
2018-07-06T02:46:36.277Z,18.80
2018-07-06T02:49:16.022Z,18.76
2018-07-06T02:51:55.651Z,18.68
2018-07-06T02:54:35.411Z,18.69
2018-07-06T02:57:15.061Z,18.72
2018-07-06T02:59:54.735Z,18.71
2018-07-06T03:02:34.541Z,18.71
2018-07-06T03:05:14.395Z,18.70
2018-07-06T03:07:54.071Z,18.62
2018-07-06T03:10:33.672Z,18.64
2018-07-06T03:13:13.332Z,18.68
2018-07-06T03:15:53.123Z,18.64
2018-07-06T03:18:32.943Z,18.64
2018-07-06T03:21:12.732Z,18.67
2018-07-06T03:23:52.532Z,18.68
2018-07-06T03:26:32.388Z,18.70
2018-07-06T03:29:12.138Z,18.70
2018-07-06T03:31:51.900Z,18.72
2018-07-06T03:34:31.598Z,18.74
2018-07-06T03:37:11.375Z,18.73
2018-07-06T03:39:51.093Z,18.73
2018-07-06T03:42:30.939Z,18.78
2018-07-06T03:45:10.687Z,18.79
2018-07-06T03:47:50.467Z,18.80
2018-07-06T03:50:30.260Z,18.86
2018-07-06T03:53:10.041Z,18.88
2018-07-06T03:55:49.868Z,18.88
2018-07-06T03:58:29.656Z,18.88
2018-07-06T04:01:09.553Z,18.84
2018-07-06T04:03:49.156Z,18.84
2018-07-06T04:06:28.783Z,18.89
2018-07-06T04:09:08.632Z,18.91
2018-07-06T04:11:48.237Z,18.92
2018-07-06T04:14:28.036Z,18.96
2018-07-06T04:17:07.784Z,18.96
2018-07-06T04:19:47.531Z,18.97
2018-07-06T04:22:27.330Z,18.91
2018-07-06T04:25:06.977Z,18.94
2018-07-06T04:27:46.770Z,18.95
2018-07-06T04:30:26.601Z,18.96
2018-07-06T04:33:06.482Z,18.96
2018-07-06T04:35:46.191Z,19.00
2018-07-06T04:38:26.006Z,18.99
2018-07-06T04:41:05.887Z,18.94
2018-07-06T04:43:45.670Z,19.01
2018-07-06T04:46:25.244Z,19.02
2018-07-06T04:49:05.028Z,19.02
2018-07-06T04:51:44.734Z,19.04
2018-07-06T04:54:24.687Z,19.04
2018-07-06T04:57:04.262Z,19.03
2018-07-06T04:59:44.040Z,18.97
2018-07-06T05:02:23.679Z,19.04
2018-07-06T05:05:03.462Z,19.07
2018-07-06T05:07:44.074Z,19.10
2018-07-06T05:10:23.905Z,19.10
2018-07-06T05:13:03.616Z,19.12
2018-07-06T05:15:43.363Z,19.14
2018-07-06T05:18:23.267Z,19.10
2018-07-06T05:21:02.972Z,19.13
2018-07-06T05:23:42.694Z,19.11
2018-07-06T05:26:22.287Z,19.13
2018-07-06T05:29:01.763Z,19.13
2018-07-06T05:31:41.524Z,19.11
2018-07-06T05:34:21.375Z,19.08
2018-07-06T05:37:01.132Z,19.09
2018-07-06T05:39:41.141Z,19.17
2018-07-06T05:42:20.843Z,19.17
2018-07-06T05:45:00.499Z,19.23
2018-07-06T05:47:40.224Z,19.22
2018-07-06T05:50:19.947Z,19.18
2018-07-06T05:52:59.656Z,19.15
2018-07-06T05:55:39.337Z,19.12
2018-07-06T05:58:19.132Z,19.13
2018-07-06T06:00:58.964Z,19.19
2018-07-06T06:03:38.740Z,19.24
2018-07-06T06:06:18.520Z,19.26
2018-07-06T06:08:45.796Z,19.30
2018-07-06T06:11:14.143Z,19.30
2018-07-06T06:13:42.524Z,19.33
2018-07-06T06:16:10.836Z,19.31
2018-07-06T06:18:39.593Z,19.24
2018-07-06T06:21:08.300Z,19.28
2018-07-06T06:23:36.680Z,19.25
2018-07-06T06:26:05.121Z,19.24
2018-07-06T06:28:33.676Z,19.32
2018-07-06T06:31:02.629Z,19.28
2018-07-06T06:33:31.190Z,19.32
2018-07-06T06:35:59.541Z,19.33
2018-07-06T06:38:27.925Z,19.31
2018-07-06T06:40:56.431Z,19.29
2018-07-06T06:43:24.831Z,19.38
2018-07-06T06:45:53.357Z,19.37
2018-07-06T06:48:21.905Z,19.41
2018-07-06T06:50:50.844Z,19.45
2018-07-06T06:53:19.453Z,19.49
2018-07-06T06:55:47.957Z,19.51
2018-07-06T06:58:16.380Z,19.51
2018-07-06T07:00:44.759Z,19.48
2018-07-06T07:03:13.143Z,19.48
2018-07-06T07:05:41.522Z,19.54
2018-07-06T07:08:09.964Z,19.56
2018-07-06T07:10:38.348Z,19.57
2018-07-06T07:13:06.762Z,19.53
2018-07-06T07:15:35.139Z,19.54
2018-07-06T07:18:03.572Z,19.56
2018-07-06T07:20:32.538Z,19.52
2018-07-06T07:23:00.923Z,19.58
2018-07-06T07:25:29.780Z,19.62
2018-07-06T07:27:58.161Z,19.61
2018-07-06T07:30:26.505Z,19.68
2018-07-06T07:32:54.903Z,19.61
2018-07-06T07:35:23.860Z,19.63
2018-07-06T10:58:01.918Z,21.04
2018-07-06T11:00:30.260Z,21.12
2018-07-06T11:02:58.623Z,21.10
2018-07-06T11:05:27.003Z,21.15
2018-07-06T11:07:55.332Z,21.08
2018-07-06T11:10:23.648Z,21.18
2018-07-06T11:12:51.986Z,21.18
2018-07-06T11:15:20.328Z,21.15
2018-07-06T11:17:48.684Z,21.07
2018-07-06T11:20:17.095Z,21.05
2018-07-06T11:22:45.444Z,21.21
2018-07-06T11:25:13.787Z,21.30
2018-07-06T11:27:42.123Z,21.23
2018-07-06T11:30:10.504Z,21.12
2018-07-06T11:32:38.842Z,20.86
2018-07-06T11:35:07.327Z,20.90
2018-07-06T11:37:35.827Z,20.99
2018-07-06T11:40:04.190Z,20.79
2018-07-06T11:42:32.567Z,20.99
2018-07-06T11:45:00.994Z,21.10
2018-07-06T11:47:29.286Z,21.11
2018-07-06T11:49:57.625Z,21.08
2018-07-06T11:52:25.952Z,21.00
2018-07-06T11:54:54.365Z,20.88
2018-07-06T11:57:22.739Z,20.90
2018-07-06T11:59:51.172Z,21.19
2018-07-06T12:02:19.520Z,21.07
2018-07-06T12:04:47.860Z,21.14
2018-07-06T12:07:16.211Z,21.13
2018-07-06T12:09:44.532Z,21.05
2018-07-06T12:12:12.863Z,21.26
2018-07-06T12:14:41.188Z,21.11
2018-07-06T12:17:09.536Z,20.93
2018-07-06T12:19:37.856Z,21.07
2018-07-06T12:22:06.228Z,21.33
2018-07-06T12:24:34.573Z,21.45
2018-07-06T12:27:02.904Z,21.35
2018-07-06T12:29:31.252Z,21.25
2018-07-06T12:31:59.664Z,21.23
2018-07-06T12:34:27.985Z,21.16
2018-07-06T12:36:56.606Z,21.12
2018-07-06T12:39:24.947Z,21.13
2018-07-06T12:41:53.282Z,21.25
2018-07-06T12:44:21.618Z,21.32
2018-07-06T12:46:49.951Z,21.41
2018-07-06T12:49:18.291Z,21.31
2018-07-06T12:51:46.624Z,21.43
2018-07-06T12:54:15.150Z,21.67
2018-07-06T12:56:43.489Z,21.77
2018-07-06T12:59:11.819Z,21.91
2018-07-06T13:05:31.965Z,22.04
2018-07-06T13:08:00.304Z,22.37
2018-07-06T13:10:28.737Z,22.18
2018-07-06T13:12:57.036Z,22.45
2018-07-06T13:15:25.384Z,22.61
2018-07-06T13:17:53.717Z,22.78
2018-07-06T13:20:22.069Z,22.82
2018-07-06T13:22:50.412Z,22.95
2018-07-06T13:25:18.748Z,23.06
2018-07-06T13:27:47.064Z,23.02
2018-07-06T13:30:15.442Z,23.02
2018-07-06T13:32:43.827Z,23.23
2018-07-06T13:35:12.238Z,22.78
2018-07-06T13:37:40.617Z,22.96
2018-07-06T13:40:09.000Z,22.65
2018-07-06T13:42:37.371Z,22.94
2018-07-06T13:45:06.197Z,22.76
2018-07-06T13:47:34.666Z,22.87
2018-07-06T13:50:03.128Z,23.02
2018-07-06T13:52:31.571Z,22.98
2018-07-06T13:54:59.943Z,23.10
2018-07-06T13:57:28.307Z,22.93
2018-07-06T13:59:56.712Z,22.85
2018-07-06T14:02:25.088Z,22.88
2018-07-06T14:04:53.453Z,22.74
2018-07-06T14:07:21.884Z,22.92
2018-07-06T14:09:50.329Z,22.75
2018-07-06T14:12:18.845Z,22.87
2018-07-06T14:14:47.629Z,22.75
2018-07-06T14:17:16.024Z,22.52
2018-07-06T14:19:44.428Z,22.58
2018-07-06T14:22:13.482Z,22.72
2018-07-06T14:24:42.347Z,22.77
2018-07-06T14:27:11.367Z,22.79
2018-07-06T14:29:39.819Z,22.63
2018-07-06T14:32:08.258Z,22.64
2018-07-06T14:34:36.698Z,22.54
2018-07-06T14:37:05.049Z,22.68
2018-07-06T14:39:33.985Z,22.74
2018-07-06T14:42:02.399Z,22.70
2018-07-06T14:44:31.472Z,22.82
2018-07-06T14:47:00.031Z,22.92
2018-07-06T14:49:28.380Z,23.10
2018-07-06T14:51:57.765Z,23.18
2018-07-06T14:54:26.515Z,23.27
2018-07-06T14:56:54.967Z,23.23
2018-07-06T14:59:23.441Z,23.36
2018-07-06T15:01:51.774Z,23.16
2018-07-06T15:04:20.116Z,23.20
2018-07-06T15:06:48.579Z,23.22
2018-07-06T15:09:16.899Z,23.43
2018-07-06T15:11:45.375Z,23.42
2018-07-06T15:14:13.752Z,23.39
2018-07-06T15:16:42.069Z,23.29
2018-07-06T15:19:10.419Z,23.32
2018-07-06T15:21:38.817Z,23.29
2018-07-06T15:24:07.319Z,23.47
2018-07-06T15:26:35.703Z,23.39
2018-07-06T15:29:04.547Z,23.48
2018-07-06T15:31:32.989Z,23.49
2018-07-06T15:34:01.399Z,23.35
2018-07-06T15:36:29.731Z,23.50
2018-07-06T15:38:58.096Z,23.50
2018-07-06T15:41:26.436Z,23.47
2018-07-06T15:43:54.769Z,23.56
2018-07-06T15:46:23.129Z,23.66
2018-07-06T15:48:51.467Z,23.60
2018-07-06T15:51:19.812Z,23.53
2018-07-06T15:53:48.148Z,23.43
2018-07-06T15:56:16.457Z,23.17
2018-07-06T15:58:44.818Z,23.14
2018-07-06T16:01:13.167Z,23.20
2018-07-06T16:03:41.491Z,23.46
2018-07-06T16:06:09.850Z,23.50
2018-07-06T16:08:38.195Z,23.44
2018-07-06T16:11:06.534Z,23.31
2018-07-06T16:13:34.852Z,23.38
2018-07-06T16:16:03.261Z,23.44
2018-07-06T16:18:31.610Z,23.54
2018-07-06T16:20:59.955Z,23.37
2018-07-06T16:23:28.295Z,23.29
2018-07-06T16:25:56.672Z,23.22
2018-07-06T16:28:25.019Z,23.18
2018-07-06T16:30:53.372Z,23.16
2018-07-06T16:33:21.711Z,23.12
2018-07-06T16:35:50.054Z,23.14
2018-07-06T16:38:18.376Z,23.11
2018-07-06T16:40:46.712Z,23.13
2018-07-06T16:43:15.028Z,23.16
2018-07-06T16:45:43.471Z,23.16
2018-07-06T16:48:11.807Z,23.16
2018-07-06T16:50:40.256Z,23.16
2018-07-06T16:53:08.592Z,23.13
2018-07-06T16:55:36.912Z,23.11
2018-07-06T16:58:05.264Z,23.11
2018-07-06T17:00:33.629Z,23.11
2018-07-06T17:03:01.962Z,23.10
2018-07-06T17:05:30.403Z,23.10
2018-07-06T17:07:58.804Z,23.07
2018-07-06T17:10:27.134Z,23.10
2018-07-06T17:12:55.459Z,23.06
2018-07-06T17:15:23.789Z,23.18
2018-07-06T17:17:52.141Z,23.25
2018-07-06T17:20:20.495Z,23.19
2018-07-06T17:22:48.835Z,23.15
2018-07-06T17:25:17.176Z,23.13
2018-07-06T17:27:45.583Z,23.11
2018-07-06T17:30:13.929Z,23.08
2018-07-06T17:32:42.267Z,23.06
2018-07-06T17:35:10.589Z,23.11
2018-07-06T17:37:39.166Z,23.07
2018-07-06T17:40:07.508Z,23.05
2018-07-06T17:42:35.851Z,23.05
2018-07-06T17:45:04.249Z,23.02
2018-07-06T17:47:32.582Z,22.95
2018-07-06T17:50:00.930Z,22.99
2018-07-06T17:52:29.255Z,22.92
2018-07-06T17:54:57.600Z,22.92
2018-07-06T17:57:25.961Z,22.86
2018-07-06T17:59:54.360Z,22.87
2018-07-06T18:02:22.772Z,22.86
2018-07-06T18:04:51.190Z,22.81
2018-07-06T18:07:19.628Z,22.79
2018-07-06T18:09:47.959Z,22.77
2018-07-06T18:12:16.273Z,22.73
2018-07-06T18:14:44.682Z,22.73
2018-07-06T18:17:13.874Z,22.70
2018-07-06T18:19:42.230Z,22.71
2018-07-06T18:22:10.571Z,22.63
2018-07-06T18:24:38.899Z,22.55
2018-07-06T18:27:07.249Z,22.53
2018-07-06T18:29:35.639Z,22.50
2018-07-06T18:32:03.976Z,22.42
2018-07-06T18:34:32.328Z,22.41
2018-07-06T18:37:00.670Z,22.36
2018-07-06T18:39:29.143Z,22.31
2018-07-06T18:41:57.526Z,22.28
2018-07-06T18:44:25.864Z,22.26
2018-07-06T18:46:54.209Z,22.21
2018-07-06T18:49:22.545Z,22.15
2018-07-06T18:51:50.881Z,22.11
2018-07-06T18:54:19.224Z,22.07
2018-07-06T18:56:47.568Z,22.03
2018-07-06T18:59:15.913Z,21.98
2018-07-06T19:01:44.270Z,21.91
2018-07-06T19:04:12.609Z,21.88
2018-07-06T19:06:40.935Z,21.81
2018-07-06T19:09:09.292Z,21.81
2018-07-06T19:11:37.636Z,21.77
2018-07-06T19:14:05.975Z,21.73
2018-07-06T19:16:34.332Z,21.63
2018-07-06T19:19:02.687Z,21.60
2018-07-06T19:21:31.048Z,21.54
2018-07-06T19:23:59.383Z,21.54
2018-07-06T19:26:27.776Z,21.49
2018-07-06T19:28:56.326Z,21.43
2018-07-06T19:31:24.672Z,21.42
2018-07-06T19:33:53.187Z,21.38
2018-07-06T19:36:21.529Z,21.34
2018-07-06T19:38:50.346Z,21.30
2018-07-06T19:41:18.676Z,21.22
2018-07-06T19:43:47.044Z,21.16
2018-07-06T19:46:15.397Z,21.14
2018-07-06T19:48:43.767Z,21.10
2018-07-06T19:51:12.243Z,21.07
2018-07-06T19:53:40.604Z,21.02
2018-07-06T19:56:08.978Z,20.93
2018-07-06T19:58:37.356Z,20.91
2018-07-06T20:01:05.707Z,20.84
2018-07-06T20:03:34.115Z,20.74
2018-07-06T20:06:02.493Z,20.69
2018-07-06T20:08:30.870Z,20.69
2018-07-06T20:10:59.176Z,20.68
2018-07-06T20:13:27.587Z,20.63
2018-07-06T20:15:55.906Z,20.59
2018-07-06T20:18:24.216Z,20.54
2018-07-06T20:20:52.562Z,20.51
2018-07-06T20:23:21.069Z,20.42
2018-07-06T20:25:49.429Z,18.92
2018-07-06T20:28:17.757Z,18.01
2018-07-06T20:30:46.108Z,17.67
2018-07-06T20:33:14.464Z,17.63
2018-07-06T20:35:42.809Z,17.82
2018-07-06T20:38:11.184Z,18.08
2018-07-06T20:40:39.515Z,18.35
2018-07-06T20:43:07.840Z,18.73
2018-07-06T20:45:36.227Z,19.04
2018-07-06T20:48:04.631Z,19.29
2018-07-06T20:50:33.012Z,19.29
2018-07-06T20:53:01.316Z,19.36
2018-07-06T20:55:29.666Z,19.42
2018-07-06T20:57:58.172Z,19.46
2018-07-06T21:00:26.652Z,19.47
2018-07-06T21:02:55.241Z,19.40
2018-07-06T21:05:23.720Z,19.41
2018-07-06T21:07:52.043Z,19.43
2018-07-06T21:10:20.393Z,19.41
2018-07-06T21:12:48.736Z,19.40
2018-07-06T21:15:17.048Z,19.42
2018-07-06T21:17:45.501Z,19.41
2018-07-06T21:20:14.008Z,19.28
2018-07-06T21:22:42.447Z,19.30
2018-07-06T21:25:11.071Z,19.15
2018-07-06T21:27:39.588Z,19.11
2018-07-06T21:30:08.022Z,19.12
2018-07-06T21:32:36.482Z,19.14
2018-07-06T21:35:04.938Z,19.07
2018-07-06T21:37:33.341Z,19.01
2018-07-06T21:40:01.787Z,19.08
2018-07-06T21:42:30.267Z,19.08
2018-07-06T21:44:58.994Z,19.11
2018-07-06T21:47:27.503Z,18.92
2018-07-06T21:49:55.833Z,18.95
2018-07-06T21:52:24.342Z,18.82
2018-07-06T21:54:52.683Z,18.81
2018-07-06T21:57:21.025Z,18.91
2018-07-06T21:59:49.472Z,18.72
2018-07-06T22:02:18.125Z,18.72
2018-07-06T22:04:47.475Z,18.69
2018-07-06T22:07:16.828Z,18.79
2018-07-06T22:09:45.857Z,18.75
2018-07-06T22:12:14.940Z,18.44
2018-07-06T22:14:43.604Z,18.46
2018-07-06T22:17:12.188Z,18.37
2018-07-06T22:19:40.563Z,18.37
2018-07-06T22:22:08.952Z,18.35
2018-07-06T22:24:37.520Z,18.29
2018-07-06T22:27:06.028Z,18.17
2018-07-06T22:29:34.410Z,18.20
2018-07-06T22:32:02.784Z,18.19
2018-07-06T22:34:31.269Z,18.17
2018-07-06T22:36:59.751Z,18.08
2018-07-06T22:39:28.250Z,17.89
2018-07-06T22:41:56.612Z,18.08
2018-07-06T22:44:24.943Z,18.20
2018-07-06T22:46:53.300Z,18.08
2018-07-06T22:49:21.942Z,17.96
2018-07-06T22:51:50.290Z,17.74
2018-07-06T22:54:18.756Z,17.76
2018-07-06T22:56:47.290Z,17.71
2018-07-06T22:59:15.619Z,17.83
2018-07-06T23:01:43.923Z,17.81
2018-07-06T23:04:12.261Z,17.74
2018-07-06T23:06:40.632Z,17.85
2018-07-06T23:09:09.011Z,17.80
2018-07-06T23:11:37.335Z,17.64
2018-07-06T23:14:05.657Z,17.60
2018-07-06T23:16:33.988Z,17.56
2018-07-06T23:19:02.343Z,17.42
2018-07-06T23:21:30.669Z,17.40
2018-07-06T23:23:59.001Z,17.21
2018-07-06T23:26:27.368Z,17.33
2018-07-06T23:28:55.712Z,17.28
2018-07-06T23:31:24.036Z,17.14
2018-07-06T23:33:52.420Z,17.10
2018-07-06T23:36:20.764Z,17.13
2018-07-06T23:38:49.088Z,17.13
2018-07-06T23:41:17.428Z,17.18
2018-07-06T23:43:45.802Z,17.18
2018-07-06T23:46:14.385Z,16.99
2018-07-06T23:48:42.865Z,17.09
2018-07-06T23:51:11.184Z,16.94
2018-07-06T23:53:39.516Z,16.81
2018-07-06T23:56:08.001Z,16.69
2018-07-06T23:58:36.336Z,16.67
